createdAt,value
2018-03-29T00:00:38.243Z,24.0
2018-03-29T00:01:39.883Z,22.8
2018-03-29T00:02:41.530Z,23.9
2018-03-29T00:03:43.172Z,23.0
2018-03-29T00:04:44.830Z,22.5
2018-03-29T00:05:46.479Z,22.0
2018-03-29T00:06:48.118Z,21.2
2018-03-29T00:07:49.783Z,21.4
2018-03-29T00:08:51.432Z,22.3
2018-03-29T00:09:53.095Z,24.0
2018-03-29T00:10:54.746Z,24.9
2018-03-29T00:11:56.396Z,26.1
2018-03-29T00:12:58.036Z,23.2
2018-03-29T00:13:59.685Z,30.5
2018-03-29T00:15:01.336Z,34.3
2018-03-29T00:16:02.984Z,32.9
2018-03-29T00:17:04.624Z,35.5
2018-03-29T00:18:06.301Z,35.7
2018-03-29T00:19:07.967Z,35.3
2018-03-29T00:20:09.615Z,34.4
2018-03-29T00:21:12.026Z,34.8
2018-03-29T00:22:13.688Z,34.6
2018-03-29T00:23:15.339Z,31.7
2018-03-29T00:24:16.998Z,31.1
2018-03-29T00:25:18.694Z,31.2
2018-03-29T00:26:20.300Z,30.7
2018-03-29T00:27:21.946Z,32.0
2018-03-29T00:28:23.598Z,30.5
2018-03-29T00:29:25.240Z,29.9
2018-03-29T00:30:26.900Z,29.8
2018-03-29T00:31:28.542Z,29.5
2018-03-29T00:32:30.190Z,32.8
2018-03-29T00:33:31.866Z,32.2
2018-03-29T00:34:33.514Z,37.0
2018-03-29T00:35:36.032Z,40.2
2018-03-29T00:36:37.684Z,37.8
2018-03-29T00:37:39.336Z,36.5
2018-03-29T00:38:40.985Z,35.1
2018-03-29T00:39:42.628Z,35.9
2018-03-29T00:40:44.270Z,34.3
2018-03-29T00:41:45.917Z,32.3
2018-03-29T00:42:47.566Z,30.3
2018-03-29T00:43:49.214Z,28.9
2018-03-29T00:44:50.856Z,27.6
2018-03-29T00:45:52.503Z,26.7
2018-03-29T00:46:54.159Z,25.1
2018-03-29T00:47:55.802Z,29.0
2018-03-29T00:48:57.453Z,31.4
2018-03-29T00:49:59.095Z,32.1
2018-03-29T00:51:00.751Z,32.9
2018-03-29T00:52:02.401Z,32.2
2018-03-29T00:53:04.063Z,32.2
2018-03-29T00:54:05.695Z,31.1
2018-03-29T00:55:07.350Z,31.4
2018-03-29T00:56:08.996Z,33.4
2018-03-29T00:57:10.642Z,35.6
2018-03-29T00:58:12.305Z,33.4
2018-03-29T00:59:13.947Z,33.7
2018-03-29T01:00:15.590Z,33.7
2018-03-29T01:01:17.250Z,32.9
2018-03-29T01:02:18.883Z,30.8
2018-03-29T01:03:20.526Z,31.4
2018-03-29T01:04:22.174Z,31.2
2018-03-29T01:05:23.839Z,35.0
2018-03-29T01:06:25.488Z,36.0
2018-03-29T01:07:27.138Z,32.9
2018-03-29T01:08:28.783Z,33.1
2018-03-29T01:09:30.433Z,33.8
2018-03-29T01:10:32.083Z,34.1
2018-03-29T01:11:33.745Z,33.1
2018-03-29T01:12:35.389Z,34.3
2018-03-29T01:13:37.039Z,33.0
2018-03-29T01:14:38.689Z,32.0
2018-03-29T01:15:40.352Z,31.4
2018-03-29T01:16:41.987Z,31.9
2018-03-29T01:17:43.640Z,31.0
2018-03-29T01:18:45.311Z,32.4
2018-03-29T01:19:46.960Z,32.3
2018-03-29T01:20:48.588Z,31.5
2018-03-29T01:21:50.242Z,38.0
2018-03-29T01:22:51.886Z,37.0
2018-03-29T01:23:53.535Z,40.1
2018-03-29T01:24:55.180Z,40.1
2018-03-29T01:25:56.828Z,40.4
2018-03-29T01:26:58.491Z,39.0
2018-03-29T01:28:00.138Z,39.4
2018-03-29T01:29:01.797Z,41.4
2018-03-29T01:30:03.440Z,40.9
2018-03-29T01:31:05.095Z,41.6
2018-03-29T01:32:06.761Z,43.5
2018-03-29T01:33:08.410Z,43.4
2018-03-29T01:34:10.061Z,41.4
2018-03-29T01:35:11.703Z,43.9
2018-03-29T01:36:13.354Z,43.7
2018-03-29T01:37:15.011Z,45.1
2018-03-29T01:38:16.646Z,45.5
2018-03-29T01:39:18.291Z,44.3
2018-03-29T01:40:19.940Z,44.5
2018-03-29T01:41:21.590Z,45.5
2018-03-29T01:42:23.274Z,46.5
2018-03-29T01:43:24.914Z,45.1
2018-03-29T01:44:26.572Z,43.4
2018-03-29T01:45:28.222Z,42.9
2018-03-29T01:46:29.868Z,43.2
2018-03-29T01:47:31.509Z,41.8
2018-03-29T01:48:33.160Z,41.0
2018-03-29T01:49:34.804Z,40.0
2018-03-29T01:50:36.457Z,38.2
2018-03-29T01:51:38.108Z,37.2
2018-03-29T01:52:39.760Z,34.8
2018-03-29T01:53:41.403Z,33.2
2018-03-29T01:54:43.052Z,31.3
2018-03-29T01:55:44.703Z,29.7
2018-03-29T02:02:14.343Z,0.0
2018-03-29T02:03:15.990Z,1.0
2018-03-29T02:05:07.795Z,2.6
2018-03-29T02:06:09.434Z,2.9
2018-03-29T02:08:01.287Z,0.3
2018-03-29T02:09:02.916Z,3.4
2018-03-29T02:10:04.578Z,7.1
2018-03-29T02:11:06.217Z,9.3
2018-03-29T02:12:07.864Z,10.4
2018-03-29T02:13:09.520Z,11.7
2018-03-29T02:14:11.171Z,13.7
2018-03-29T02:15:12.815Z,16.6
2018-03-29T02:16:14.464Z,15.5
2018-03-29T02:17:16.113Z,17.0
2018-03-29T02:18:17.759Z,16.9
2018-03-29T02:19:19.402Z,19.9
2018-03-29T02:20:21.051Z,19.1
2018-03-29T02:21:22.850Z,18.9
2018-03-29T02:22:24.496Z,20.4
2018-03-29T02:23:26.136Z,24.0
2018-03-29T02:24:27.805Z,22.8
2018-03-29T02:25:29.438Z,22.2
2018-03-29T02:26:31.082Z,22.9
2018-03-29T02:27:32.733Z,26.0
2018-03-29T02:28:34.377Z,27.1
2018-03-29T02:29:36.022Z,27.5
2018-03-29T02:30:37.663Z,22.7
2018-03-29T02:31:39.307Z,26.0
2018-03-29T02:32:40.956Z,26.7
2018-03-29T02:33:42.595Z,26.6
2018-03-29T02:34:44.242Z,25.6
2018-03-29T02:35:45.896Z,25.0
2018-03-29T02:36:47.539Z,25.8
2018-03-29T02:37:49.193Z,26.4
2018-03-29T02:38:50.832Z,24.1
2018-03-29T02:39:52.483Z,22.6
2018-03-29T02:40:54.113Z,22.9
2018-03-29T02:41:55.772Z,25.0
2018-03-29T02:42:57.418Z,26.4
2018-03-29T02:43:59.068Z,29.0
2018-03-29T02:45:00.717Z,29.0
2018-03-29T02:46:02.357Z,28.3
2018-03-29T02:47:04.007Z,27.1
2018-03-29T02:48:05.658Z,29.0
2018-03-29T02:49:07.302Z,28.9
2018-03-29T02:50:08.961Z,28.9
2018-03-29T02:51:10.604Z,28.5
2018-03-29T02:52:12.262Z,28.1
2018-03-29T02:53:13.894Z,27.9
2018-03-29T02:54:15.534Z,29.0
2018-03-29T02:55:17.185Z,30.4
2018-03-29T02:56:18.840Z,28.8
2018-03-29T02:57:20.487Z,28.3
2018-03-29T02:58:22.136Z,27.1
2018-03-29T02:59:23.795Z,28.2
2018-03-29T03:00:25.443Z,28.0
2018-03-29T03:01:27.051Z,27.3
2018-03-29T03:02:28.695Z,28.7
2018-03-29T03:03:30.348Z,30.4
2018-03-29T03:04:31.987Z,27.0
2018-03-29T03:05:33.644Z,27.3
2018-03-29T03:06:35.290Z,27.9
2018-03-29T03:07:36.936Z,28.6
2018-03-29T03:08:38.582Z,27.5
2018-03-29T03:09:40.228Z,25.7
2018-03-29T03:10:41.881Z,24.3
2018-03-29T03:11:43.524Z,23.4
2018-03-29T03:12:45.173Z,21.9
2018-03-29T03:13:46.822Z,21.9
2018-03-29T03:14:48.467Z,23.5
2018-03-29T03:15:50.115Z,22.6
2018-03-29T03:16:51.765Z,22.5
2018-03-29T03:17:53.482Z,22.1
2018-03-29T03:18:55.128Z,21.7
2018-03-29T03:19:56.781Z,22.0
2018-03-29T03:20:58.496Z,21.2
2018-03-29T03:22:00.140Z,21.7
2018-03-29T03:23:01.849Z,21.2
2018-03-29T03:24:03.445Z,22.1
2018-03-29T03:25:05.093Z,22.9
2018-03-29T03:26:06.748Z,20.9
2018-03-29T03:27:08.388Z,22.0
2018-03-29T03:28:10.034Z,21.4
2018-03-29T03:29:11.686Z,22.0
2018-03-29T03:30:13.327Z,21.8
2018-03-29T03:31:14.986Z,22.6
2018-03-29T03:32:16.640Z,22.3
2018-03-29T03:33:18.924Z,22.4
2018-03-29T03:34:20.560Z,21.0
2018-03-29T03:35:22.218Z,21.2
2018-03-29T03:36:23.868Z,20.1
2018-03-29T03:37:25.519Z,19.6
2018-03-29T03:38:27.262Z,19.6
2018-03-29T03:39:28.919Z,18.8
2018-03-29T03:40:30.578Z,17.4
2018-03-29T03:41:32.228Z,18.5
2018-03-29T03:42:33.880Z,19.2
2018-03-29T03:43:35.520Z,18.2
2018-03-29T03:44:37.178Z,19.6
2018-03-29T03:45:38.816Z,20.1
2018-03-29T03:46:40.514Z,21.3
2018-03-29T03:47:42.184Z,23.4
2018-03-29T03:48:43.822Z,24.1
2018-03-29T03:49:45.468Z,25.6
2018-03-29T03:50:47.104Z,28.2
2018-03-29T03:51:48.761Z,27.7
2018-03-29T03:52:50.408Z,27.3
2018-03-29T03:53:52.054Z,27.6
2018-03-29T03:54:53.697Z,27.7
2018-03-29T03:55:55.361Z,28.0
2018-03-29T03:56:56.997Z,26.8
2018-03-29T03:57:58.638Z,26.9
2018-03-29T03:59:00.283Z,29.1
2018-03-29T04:00:01.937Z,31.3
2018-03-29T04:01:03.587Z,31.6
2018-03-29T04:02:05.231Z,29.6
2018-03-29T04:03:06.945Z,30.8
2018-03-29T04:04:08.585Z,28.9
2018-03-29T04:05:10.232Z,30.4
2018-03-29T04:06:11.878Z,32.3
2018-03-29T04:07:13.533Z,30.3
2018-03-29T04:08:15.176Z,30.4
2018-03-29T04:09:16.826Z,30.4
2018-03-29T04:10:18.471Z,32.6
2018-03-29T04:11:20.125Z,33.7
2018-03-29T04:12:21.765Z,32.2
2018-03-29T04:13:23.587Z,32.3
2018-03-29T04:14:25.236Z,33.3
2018-03-29T04:15:26.883Z,33.0
2018-03-29T04:16:28.530Z,34.8
2018-03-29T04:17:30.176Z,33.3
2018-03-29T04:18:31.820Z,33.6
2018-03-29T04:19:33.526Z,32.8
2018-03-29T04:20:35.140Z,32.7
2018-03-29T04:21:36.785Z,32.6
2018-03-29T04:22:38.456Z,32.1
2018-03-29T04:23:40.102Z,30.8
2018-03-29T04:24:41.764Z,30.0
2018-03-29T04:25:43.407Z,30.2
2018-03-29T04:26:45.060Z,28.9
2018-03-29T04:27:46.708Z,27.9
2018-03-29T04:28:48.359Z,27.1
2018-03-29T04:29:50.009Z,27.4
2018-03-29T04:30:51.650Z,26.1
2018-03-29T04:31:53.296Z,26.4
2018-03-29T04:32:54.947Z,28.2
2018-03-29T04:33:56.601Z,29.0
2018-03-29T04:34:58.253Z,30.8
2018-03-29T04:35:59.912Z,31.3
2018-03-29T04:37:01.559Z,31.2
2018-03-29T04:38:03.202Z,31.5
2018-03-29T04:39:04.849Z,33.3
2018-03-29T04:40:06.502Z,31.1
2018-03-29T04:41:08.137Z,31.0
2018-03-29T04:42:09.774Z,31.4
2018-03-29T04:43:11.438Z,34.2
2018-03-29T04:44:13.075Z,33.8
2018-03-29T04:45:14.731Z,36.2
2018-03-29T04:46:16.381Z,34.2
2018-03-29T04:47:18.026Z,32.4
2018-03-29T04:48:19.675Z,31.9
2018-03-29T04:49:21.327Z,31.9
2018-03-29T04:50:22.981Z,30.3
2018-03-29T04:51:24.639Z,31.1
2018-03-29T04:52:26.349Z,32.5
2018-03-29T04:53:27.987Z,32.9
2018-03-29T04:54:29.638Z,33.9
2018-03-29T04:55:31.319Z,34.2
2018-03-29T04:56:32.951Z,33.3
2018-03-29T04:57:34.591Z,33.0
2018-03-29T04:58:36.245Z,32.5
2018-03-29T04:59:37.891Z,34.2
2018-03-29T05:00:39.540Z,35.0
2018-03-29T05:01:41.190Z,35.8
2018-03-29T05:02:42.840Z,34.5
2018-03-29T05:03:44.484Z,36.3
2018-03-29T05:04:46.138Z,35.0
2018-03-29T05:05:47.790Z,34.5
2018-03-29T05:06:49.439Z,34.4
2018-03-29T05:07:51.093Z,34.1
2018-03-29T05:08:52.742Z,34.4
2018-03-29T05:09:54.396Z,31.8
2018-03-29T05:10:56.041Z,29.7
2018-03-29T05:11:57.686Z,28.4
2018-03-29T05:12:59.327Z,28.1
2018-03-29T05:14:00.970Z,27.5
2018-03-29T05:15:02.633Z,24.3
2018-03-29T05:16:04.283Z,22.7
2018-03-29T05:17:05.932Z,25.6
2018-03-29T05:18:07.581Z,23.8
2018-03-29T05:19:09.236Z,21.3
2018-03-29T05:20:10.889Z,19.6
2018-03-29T05:21:12.553Z,18.2
2018-03-29T05:22:14.819Z,17.5
2018-03-29T05:23:16.476Z,18.0
2018-03-29T05:24:18.122Z,19.2
2018-03-29T05:25:19.780Z,22.7
2018-03-29T05:26:21.432Z,25.3
2018-03-29T05:27:23.089Z,26.5
2018-03-29T05:28:24.736Z,25.9
2018-03-29T05:29:26.392Z,26.1
2018-03-29T05:30:28.042Z,25.9
2018-03-29T05:31:29.806Z,26.5
2018-03-29T05:32:31.453Z,25.5
2018-03-29T05:33:33.106Z,23.8
2018-03-29T05:34:34.760Z,22.8
2018-03-29T05:35:36.401Z,20.9
2018-03-29T05:36:38.060Z,19.2
2018-03-29T05:37:39.705Z,18.5
2018-03-29T05:38:41.359Z,17.6
2018-03-29T05:39:43.018Z,16.8
2018-03-29T05:40:44.678Z,15.2
2018-03-29T05:41:46.326Z,14.4
2018-03-29T05:42:47.980Z,14.0
2018-03-29T05:43:49.630Z,13.1
2018-03-29T05:44:51.292Z,12.7
2018-03-29T05:45:53.024Z,12.6
2018-03-29T05:46:54.688Z,13.6
2018-03-29T05:47:56.330Z,15.0
2018-03-29T05:48:57.981Z,18.2
2018-03-29T05:49:59.637Z,20.9
2018-03-29T05:51:01.282Z,21.1
2018-03-29T05:52:02.938Z,21.3
2018-03-29T05:53:04.596Z,22.1
2018-03-29T05:54:06.243Z,24.2
2018-03-29T05:55:07.904Z,26.3
2018-03-29T06:01:40.555Z,24.9
2018-03-29T06:02:42.204Z,27.9
2018-03-29T06:03:43.858Z,28.0
2018-03-29T06:04:45.516Z,29.9
2018-03-29T06:05:47.169Z,32.1
2018-03-29T06:06:48.813Z,31.3
2018-03-29T06:07:50.566Z,31.1
2018-03-29T06:08:52.221Z,32.4
2018-03-29T06:09:53.863Z,32.2
2018-03-29T06:10:55.519Z,33.1
2018-03-29T06:11:57.176Z,32.7
2018-03-29T06:12:58.828Z,34.7
2018-03-29T06:14:00.478Z,36.3
2018-03-29T06:15:02.142Z,35.1
2018-03-29T06:16:03.837Z,34.9
2018-03-29T06:17:05.446Z,36.5
2018-03-29T06:18:07.156Z,42.0
2018-03-29T06:19:08.811Z,41.9
2018-03-29T06:20:10.504Z,43.1
2018-03-29T06:21:12.162Z,42.8
2018-03-29T06:22:13.813Z,43.2
2018-03-29T06:23:15.548Z,43.3
2018-03-29T06:24:17.130Z,44.4
2018-03-29T06:25:18.790Z,45.0
2018-03-29T06:26:20.445Z,45.9
2018-03-29T06:27:22.104Z,46.2
2018-03-29T06:28:23.761Z,44.9
2018-03-29T06:29:25.469Z,44.6
2018-03-29T06:30:27.125Z,43.3
2018-03-29T06:31:28.779Z,43.6
2018-03-29T06:32:30.472Z,42.7
2018-03-29T06:33:32.144Z,42.8
2018-03-29T06:34:33.808Z,43.6
2018-03-29T06:35:35.465Z,42.9
2018-03-29T06:36:37.118Z,41.7
2018-03-29T06:37:38.773Z,40.8
2018-03-29T06:38:40.433Z,40.3
2018-03-29T06:39:42.077Z,40.6
2018-03-29T06:40:43.738Z,41.6
2018-03-29T06:41:45.389Z,42.7
2018-03-29T06:42:47.043Z,42.2
2018-03-29T06:43:48.702Z,43.6
2018-03-29T06:44:51.315Z,42.7
2018-03-29T06:45:52.963Z,41.9
2018-03-29T06:46:54.630Z,39.7
2018-03-29T06:47:56.277Z,37.9
2018-03-29T06:48:57.932Z,38.5
2018-03-29T06:49:59.582Z,41.1
2018-03-29T06:51:01.242Z,40.6
2018-03-29T06:52:02.913Z,41.0
2018-03-29T06:53:04.566Z,40.6
2018-03-29T06:54:06.228Z,40.6
2018-03-29T06:55:07.874Z,41.7
2018-03-29T06:56:09.532Z,44.7
2018-03-29T06:57:11.194Z,45.4
2018-03-29T06:58:12.854Z,44.9
2018-03-29T06:59:14.497Z,49.8
2018-03-29T07:00:16.154Z,51.0
2018-03-29T07:01:17.815Z,54.2
2018-03-29T07:02:19.465Z,59.6
2018-03-29T07:03:21.124Z,60.3
2018-03-29T07:04:22.778Z,57.4
2018-03-29T07:05:24.445Z,58.2
2018-03-29T07:06:26.131Z,56.1
2018-03-29T07:07:27.791Z,58.3
2018-03-29T07:08:29.434Z,59.1
2018-03-29T07:09:31.084Z,58.5
2018-03-29T07:10:32.737Z,57.0
2018-03-29T07:11:34.401Z,56.4
2018-03-29T07:12:36.069Z,55.2
2018-03-29T07:13:37.720Z,64.0
2018-03-29T07:14:39.385Z,62.7
2018-03-29T07:15:41.038Z,62.8
2018-03-29T07:16:42.698Z,66.6
2018-03-29T07:17:44.354Z,64.3
2018-03-29T07:18:46.016Z,65.9
2018-03-29T07:19:47.716Z,66.4
2018-03-29T07:20:49.369Z,67.8
2018-03-29T07:21:51.041Z,67.8
2018-03-29T07:22:52.690Z,66.4
2018-03-29T07:23:54.342Z,64.7
2018-03-29T07:24:56.010Z,65.8
2018-03-29T07:25:57.662Z,65.9
2018-03-29T07:27:00.171Z,63.6
2018-03-29T07:28:01.834Z,62.6
2018-03-29T07:29:03.494Z,62.0
2018-03-29T07:30:05.167Z,62.1
2018-03-29T07:31:06.817Z,60.3
2018-03-29T07:32:08.480Z,60.6
2018-03-29T07:33:10.159Z,58.1
2018-03-29T07:34:11.812Z,63.6
2018-03-29T07:35:13.474Z,64.7
2018-03-29T07:36:15.129Z,65.0
2018-03-29T07:37:16.780Z,64.0
2018-03-29T07:38:18.439Z,62.8
2018-03-29T07:39:20.091Z,62.8
2018-03-29T07:40:21.744Z,67.7
2018-03-29T07:41:23.404Z,66.1
2018-03-29T07:42:25.061Z,65.9
2018-03-29T07:43:26.719Z,69.6
2018-03-29T07:44:28.375Z,70.8
2018-03-29T07:45:30.028Z,73.1
2018-03-29T07:46:31.723Z,76.3
2018-03-29T07:47:33.392Z,76.7
2018-03-29T07:48:35.039Z,78.3
2018-03-29T07:49:36.696Z,81.5
2018-03-29T07:50:38.375Z,82.3
2018-03-29T07:51:40.038Z,86.1
2018-03-29T07:52:41.711Z,89.5
2018-03-29T07:53:43.415Z,100.0
2018-03-29T07:54:45.037Z,100.0
2018-03-29T07:55:46.695Z,100.0
2018-03-29T07:56:48.372Z,100.0
2018-03-29T07:57:50.024Z,100.0
2018-03-29T07:58:51.680Z,97.5
2018-03-29T07:59:53.333Z,96.6
2018-03-29T08:00:54.994Z,94.7
2018-03-29T08:01:56.657Z,94.6
2018-03-29T08:02:58.361Z,94.2
2018-03-29T08:04:00.026Z,93.6
2018-03-29T08:05:01.681Z,89.3
2018-03-29T08:06:03.353Z,88.4
2018-03-29T08:07:05.006Z,87.7
2018-03-29T08:08:06.659Z,91.4
2018-03-29T08:09:08.320Z,90.0
2018-03-29T08:10:09.986Z,89.1
2018-03-29T08:11:11.637Z,92.4
2018-03-29T08:12:13.305Z,95.1
2018-03-29T08:13:15.007Z,93.0
2018-03-29T08:14:16.667Z,91.8
2018-03-29T08:15:18.318Z,91.2
2018-03-29T08:16:20.288Z,93.9
2018-03-29T08:17:21.937Z,93.7
2018-03-29T08:18:23.595Z,96.3
2018-03-29T08:19:25.264Z,94.1
2018-03-29T08:20:26.919Z,90.0
2018-03-29T08:21:28.563Z,88.2
2018-03-29T08:22:30.255Z,83.1
2018-03-29T08:23:31.909Z,81.9
2018-03-29T08:24:33.585Z,81.2
2018-03-29T08:25:39.999Z,79.1
2018-03-29T08:26:41.653Z,81.3
2018-03-29T08:27:43.309Z,76.9
2018-03-29T08:28:44.962Z,73.4
2018-03-29T08:29:48.448Z,70.5
2018-03-29T08:30:50.110Z,69.7
2018-03-29T08:31:51.761Z,68.1
2018-03-29T08:32:53.439Z,64.9
2018-03-29T08:33:55.093Z,61.9
2018-03-29T08:34:56.745Z,59.4
2018-03-29T08:35:58.402Z,59.3
2018-03-29T08:37:00.070Z,55.9
2018-03-29T08:38:01.718Z,53.1
2018-03-29T08:39:03.378Z,52.6
2018-03-29T08:40:05.032Z,53.1
2018-03-29T08:41:06.693Z,50.0
2018-03-29T08:42:08.345Z,50.8
2018-03-29T08:43:10.000Z,48.2
2018-03-29T08:44:11.660Z,47.3
2018-03-29T08:45:13.392Z,45.9
2018-03-29T08:46:15.054Z,43.4
2018-03-29T08:47:16.730Z,42.0
2018-03-29T08:48:18.378Z,40.1
2018-03-29T08:49:20.028Z,37.8
2018-03-29T08:50:21.697Z,37.2
2018-03-29T08:51:23.347Z,37.9
2018-03-29T08:52:25.007Z,35.2
2018-03-29T08:53:26.662Z,34.6
2018-03-29T08:54:28.373Z,34.0
2018-03-29T08:55:30.020Z,32.7
2018-03-29T08:56:31.677Z,32.2
2018-03-29T08:57:33.343Z,29.6
2018-03-29T08:58:34.996Z,30.1
2018-03-29T08:59:36.659Z,30.4
2018-03-29T09:00:38.353Z,33.9
2018-03-29T09:01:40.015Z,33.0
2018-03-29T09:02:41.868Z,35.2
2018-03-29T09:03:43.531Z,37.0
2018-03-29T09:04:45.169Z,37.0
2018-03-29T09:05:46.858Z,37.0
2018-03-29T09:06:48.572Z,36.7
2018-03-29T09:07:50.230Z,39.4
2018-03-29T09:08:51.913Z,37.8
2018-03-29T09:09:53.568Z,38.0
2018-03-29T09:10:55.229Z,37.7
2018-03-29T09:11:56.882Z,38.0
2018-03-29T09:12:58.687Z,37.9
2018-03-29T09:14:00.348Z,38.0
2018-03-29T09:15:02.005Z,40.1
2018-03-29T09:16:03.671Z,44.0
2018-03-29T09:17:05.332Z,48.7
2018-03-29T09:18:07.010Z,50.0
2018-03-29T09:19:08.653Z,49.6
2018-03-29T09:20:10.319Z,54.8
2018-03-29T09:21:11.970Z,57.3
2018-03-29T09:22:13.636Z,56.0
2018-03-29T09:23:15.309Z,56.2
2018-03-29T09:24:16.966Z,57.7
2018-03-29T09:25:18.627Z,65.3
2018-03-29T09:26:20.284Z,75.2
2018-03-29T09:27:21.949Z,70.3
2018-03-29T09:28:23.731Z,80.9
2018-03-29T09:29:25.389Z,79.6
2018-03-29T09:30:27.052Z,80.8
2018-03-29T09:31:28.717Z,84.2
2018-03-29T09:32:30.379Z,89.5
2018-03-29T09:33:32.055Z,83.1
2018-03-29T09:34:33.715Z,86.4
2018-03-29T09:35:35.369Z,85.8
2018-03-29T09:36:37.032Z,87.3
2018-03-29T09:37:38.686Z,89.1
2018-03-29T09:38:40.396Z,86.9
2018-03-29T09:39:42.050Z,86.8
2018-03-29T09:40:43.716Z,85.5
2018-03-29T09:41:45.375Z,82.9
2018-03-29T09:42:47.045Z,81.8
2018-03-29T09:43:48.718Z,83.4
2018-03-29T09:44:50.363Z,87.6
2018-03-29T09:45:52.023Z,86.8
2018-03-29T09:46:53.681Z,85.0
2018-03-29T09:47:55.346Z,84.0
2018-03-29T09:48:57.017Z,81.0
2018-03-29T09:49:58.742Z,89.0
2018-03-29T09:51:00.396Z,90.5
2018-03-29T09:52:02.073Z,92.2
2018-03-29T09:53:03.726Z,89.3
2018-03-29T09:54:05.391Z,90.0
2018-03-29T09:55:07.046Z,89.7
2018-03-29T10:01:18.659Z,91.0
2018-03-29T10:02:20.316Z,91.1
2018-03-29T10:04:12.199Z,90.7
2018-03-29T10:05:13.850Z,90.4
2018-03-29T10:06:15.513Z,89.4
2018-03-29T10:07:17.174Z,89.3
2018-03-29T10:08:18.829Z,92.1
2018-03-29T10:09:20.497Z,90.1
2018-03-29T10:10:22.198Z,88.7
2018-03-29T10:11:23.841Z,85.2
2018-03-29T10:12:25.511Z,82.7
2018-03-29T10:13:27.160Z,80.1
2018-03-29T10:14:28.844Z,75.5
2018-03-29T10:15:30.502Z,73.1
2018-03-29T10:16:32.160Z,74.9
2018-03-29T10:17:34.214Z,74.7
2018-03-29T10:18:35.906Z,70.9
2018-03-29T10:19:37.560Z,69.9
2018-03-29T10:20:39.226Z,66.2
2018-03-29T10:21:40.890Z,63.1
2018-03-29T10:22:42.536Z,62.7
2018-03-29T10:23:44.188Z,61.4
2018-03-29T10:24:45.908Z,66.1
2018-03-29T10:25:47.569Z,65.6
2018-03-29T10:26:49.219Z,64.2
2018-03-29T10:27:50.873Z,68.0
2018-03-29T10:28:52.677Z,67.6
2018-03-29T10:29:54.338Z,67.9
2018-03-29T10:30:56.015Z,64.8
2018-03-29T10:31:57.683Z,71.0
2018-03-29T10:32:59.348Z,74.4
2018-03-29T10:34:01.019Z,74.9
2018-03-29T10:35:02.679Z,71.7
2018-03-29T10:36:04.332Z,78.4
2018-03-29T10:37:05.986Z,73.7
2018-03-29T10:38:07.637Z,73.0
2018-03-29T10:39:09.310Z,74.6
2018-03-29T10:40:10.967Z,79.5
2018-03-29T10:41:12.637Z,74.5
2018-03-29T10:42:14.288Z,74.9
2018-03-29T10:43:15.947Z,77.8
2018-03-29T10:44:17.607Z,77.8
2018-03-29T10:45:19.273Z,81.8
2018-03-29T10:46:20.930Z,82.1
2018-03-29T10:47:22.588Z,79.8
2018-03-29T10:48:24.258Z,79.8
2018-03-29T10:49:25.937Z,82.9
2018-03-29T10:50:27.594Z,80.2
2018-03-29T10:51:29.264Z,83.3
2018-03-29T10:52:30.936Z,83.2
2018-03-29T10:53:32.591Z,81.5
2018-03-29T10:54:34.271Z,76.9
2018-03-29T10:55:35.946Z,71.8
2018-03-29T10:56:37.610Z,75.2
2018-03-29T10:57:39.263Z,76.0
2018-03-29T10:58:40.929Z,79.7
2018-03-29T10:59:42.586Z,83.1
2018-03-29T11:00:44.258Z,84.2
2018-03-29T11:01:48.422Z,80.8
2018-03-29T11:02:54.003Z,78.9
2018-03-29T11:03:55.509Z,80.3
2018-03-29T11:04:57.167Z,78.0
2018-03-29T11:05:58.824Z,77.3
2018-03-29T11:07:00.486Z,77.3
2018-03-29T11:08:02.142Z,77.3
2018-03-29T11:09:03.931Z,78.9
2018-03-29T11:10:05.602Z,80.3
2018-03-29T11:11:07.284Z,78.3
2018-03-29T11:12:08.951Z,77.7
2018-03-29T11:13:10.611Z,81.8
2018-03-29T11:14:12.271Z,81.4
2018-03-29T11:15:13.937Z,81.7
2018-03-29T11:16:15.589Z,83.1
2018-03-29T11:17:20.332Z,79.4
2018-03-29T11:18:21.768Z,80.1
2018-03-29T11:19:23.424Z,77.1
2018-03-29T11:20:25.086Z,82.5
2018-03-29T11:21:26.744Z,82.5
2018-03-29T11:22:28.419Z,80.6
2018-03-29T11:23:30.089Z,77.4
2018-03-29T11:24:31.800Z,83.3
2018-03-29T11:25:33.467Z,83.2
2018-03-29T11:26:35.133Z,86.0
2018-03-29T11:27:36.793Z,86.7
2018-03-29T11:28:38.454Z,83.9
2018-03-29T11:29:40.186Z,85.0
2018-03-29T11:30:41.855Z,84.5
2018-03-29T11:31:43.504Z,82.5
2018-03-29T11:32:45.172Z,80.9
2018-03-29T11:33:46.840Z,83.5
2018-03-29T11:34:48.503Z,82.3
2018-03-29T11:35:50.171Z,78.3
2018-03-29T11:36:51.831Z,80.6
2018-03-29T11:37:53.489Z,76.8
2018-03-29T11:38:55.174Z,78.7
2018-03-29T11:39:56.833Z,85.2
2018-03-29T11:40:58.498Z,81.3
2018-03-29T11:42:00.181Z,76.3
2018-03-29T11:43:01.835Z,76.0
2018-03-29T11:44:03.504Z,74.4
2018-03-29T11:45:05.167Z,84.2
2018-03-29T11:46:06.842Z,81.6
2018-03-29T11:47:08.502Z,77.1
2018-03-29T11:48:10.412Z,85.1
2018-03-29T11:49:12.075Z,80.7
2018-03-29T11:50:13.737Z,80.8
2018-03-29T11:51:15.443Z,78.1
2018-03-29T11:52:17.103Z,78.4
2018-03-29T11:53:18.785Z,73.1
2018-03-29T11:54:20.459Z,78.2
2018-03-29T11:55:22.130Z,79.8
2018-03-29T11:56:23.804Z,83.6
2018-03-29T11:57:25.469Z,91.1
2018-03-29T11:58:27.121Z,94.1
2018-03-29T11:59:28.794Z,86.9
2018-03-29T12:00:30.458Z,84.7
2018-03-29T12:01:32.116Z,89.2
2018-03-29T12:02:33.795Z,83.4
2018-03-29T12:03:35.464Z,84.0
2018-03-29T12:04:37.116Z,97.7
2018-03-29T12:05:38.815Z,97.4
2018-03-29T12:06:40.474Z,100.0
2018-03-29T12:07:43.571Z,100.0
2018-03-29T12:08:46.664Z,100.0
2018-03-29T12:09:48.287Z,100.0
2018-03-29T12:10:49.966Z,100.0
2018-03-29T12:11:51.659Z,100.0
2018-03-29T12:12:53.342Z,100.0
2018-03-29T12:13:55.017Z,100.0
2018-03-29T12:14:56.691Z,99.9
2018-03-29T12:15:58.363Z,93.3
2018-03-29T12:17:00.039Z,85.9
2018-03-29T12:18:02.040Z,79.5
2018-03-29T12:19:03.830Z,79.4
2018-03-29T12:20:05.662Z,80.2
2018-03-29T12:21:07.337Z,85.2
2018-03-29T12:22:09.054Z,95.0
2018-03-29T12:23:10.731Z,99.0
2018-03-29T12:24:12.407Z,100.0
2018-03-29T12:25:14.068Z,100.0
2018-03-29T12:26:15.748Z,100.0
2018-03-29T12:27:17.424Z,100.0
2018-03-29T12:28:19.093Z,100.0
2018-03-29T12:29:20.764Z,100.0
2018-03-29T12:30:22.447Z,100.0
2018-03-29T12:31:24.104Z,99.6
2018-03-29T12:32:25.777Z,99.1
2018-03-29T12:33:27.437Z,98.6
2018-03-29T12:34:29.104Z,93.3
2018-03-29T12:35:30.802Z,90.7
2018-03-29T12:36:32.537Z,78.6
2018-03-29T12:37:34.390Z,67.6
2018-03-29T12:38:36.156Z,58.8
2018-03-29T12:39:37.877Z,52.5
2018-03-29T12:40:39.739Z,40.7
2018-03-29T12:41:41.557Z,39.4
2018-03-29T12:42:43.213Z,35.3
2018-03-29T12:43:44.895Z,30.6
2018-03-29T12:44:47.020Z,31.5
2018-03-29T12:45:48.760Z,27.1
2018-03-29T12:46:50.531Z,35.3
2018-03-29T12:47:52.229Z,32.6
2018-03-29T12:48:53.924Z,37.1
2018-03-29T12:49:55.581Z,47.2
2018-03-29T12:50:57.300Z,60.5
2018-03-29T12:51:58.971Z,67.7
2018-03-29T12:53:00.662Z,60.3
2018-03-29T12:54:02.317Z,75.1
2018-03-29T12:55:04.038Z,67.2
2018-03-29T12:56:05.776Z,67.6
2018-03-29T12:57:07.468Z,83.3
2018-03-29T12:58:09.167Z,87.7
2018-03-29T12:59:10.859Z,84.6
2018-03-29T13:00:12.717Z,86.3
2018-03-29T13:01:14.339Z,98.9
2018-03-29T13:02:16.009Z,79.0
2018-03-29T13:03:17.670Z,90.3
2018-03-29T13:04:19.388Z,86.3
2018-03-29T13:05:21.055Z,98.8
2018-03-29T13:06:22.772Z,98.1
2018-03-29T13:07:24.553Z,100.0
2018-03-29T13:08:26.249Z,100.0
2018-03-29T13:09:27.950Z,100.0
2018-03-29T13:10:29.673Z,100.0
2018-03-29T13:11:31.532Z,100.0
2018-03-29T13:12:33.339Z,100.0
2018-03-29T13:13:35.014Z,100.0
2018-03-29T13:14:36.707Z,100.0
2018-03-29T13:15:38.357Z,100.0
2018-03-29T13:16:40.272Z,100.0
2018-03-29T13:17:41.950Z,100.0
2018-03-29T13:18:43.619Z,100.0
2018-03-29T13:19:45.412Z,100.0
2018-03-29T13:20:47.086Z,100.0
2018-03-29T13:21:48.760Z,100.0
2018-03-29T13:22:50.421Z,100.0
2018-03-29T13:23:52.163Z,100.0
2018-03-29T13:24:53.902Z,99.3
2018-03-29T13:25:55.566Z,96.2
2018-03-29T13:26:57.219Z,97.1
2018-03-29T13:27:58.889Z,97.3
2018-03-29T13:29:00.553Z,94.8
2018-03-29T13:30:02.233Z,94.8
2018-03-29T13:31:03.891Z,90.1
2018-03-29T13:32:05.569Z,90.3
2018-03-29T13:33:07.229Z,83.6
2018-03-29T13:34:08.894Z,84.1
2018-03-29T13:35:10.569Z,79.1
2018-03-29T13:36:12.224Z,72.3
2018-03-29T13:37:13.933Z,65.3
2018-03-29T13:38:15.586Z,76.8
2018-03-29T13:39:17.242Z,71.9
2018-03-29T13:40:18.962Z,74.5
2018-03-29T13:41:20.654Z,63.1
2018-03-29T13:42:22.341Z,65.4
2018-03-29T13:43:24.030Z,60.3
2018-03-29T13:44:25.666Z,56.5
2018-03-29T13:45:27.325Z,53.7
2018-03-29T13:46:28.983Z,44.7
2018-03-29T13:47:30.643Z,43.9
2018-03-29T13:48:32.380Z,47.4
2018-03-29T13:49:34.047Z,43.6
2018-03-29T13:50:35.721Z,38.0
2018-03-29T13:51:37.373Z,47.9
2018-03-29T13:52:39.094Z,59.7
2018-03-29T13:53:40.754Z,59.0
2018-03-29T13:54:42.418Z,82.4
2018-03-29T13:55:44.077Z,88.3
2018-03-29T14:02:08.663Z,100.0
2018-03-29T14:03:10.306Z,100.0
2018-03-29T14:04:11.968Z,100.0